sensor_id;sensor_type;location;lat;lon;timestamp;pressure;altitude;pressure_sealevel;temperature;humidity
46111;BME280;31849;55.992;37.252;2022-12-04T00:02:41;102029.97;;;-6.74;62.81
46111;BME280;31849;55.992;37.252;2022-12-04T00:07:46;102023.91;;;-6.83;62.91
46111;BME280;31849;55.992;37.252;2022-12-04T00:12:50;102014.66;;;-6.98;63.62
46111;BME280;31849;55.992;37.252;2022-12-04T00:17:53;102021.16;;;-7.16;63.60
46111;BME280;31849;55.992;37.252;2022-12-04T00:22:58;102023.50;;;-7.18;63.07
46111;BME280;31849;55.992;37.252;2022-12-04T00:28:01;102018.00;;;-7.30;64.03
46111;BME280;31849;55.992;37.252;2022-12-04T00:33:05;102022.13;;;-7.07;62.76
46111;BME280;31849;55.992;37.252;2022-12-04T00:38:10;102011.91;;;-7.16;62.85
46111;BME280;31849;55.992;37.252;2022-12-04T00:43:13;102006.03;;;-7.23;63.71
46111;BME280;31849;55.992;37.252;2022-12-04T00:48:17;102014.94;;;-7.11;62.73
46111;BME280;31849;55.992;37.252;2022-12-04T00:53:22;102011.81;;;-7.01;62.84
46111;BME280;31849;55.992;37.252;2022-12-04T00:58:25;102014.78;;;-7.13;63.11
46111;BME280;31849;55.992;37.252;2022-12-04T01:03:29;102009.66;;;-7.05;63.06
46111;BME280;31849;55.992;37.252;2022-12-04T01:08:34;102013.00;;;-7.14;63.38
46111;BME280;31849;55.992;37.252;2022-12-04T01:13:37;102018.72;;;-7.31;63.74
46111;BME280;31849;55.992;37.252;2022-12-04T01:18:40;102020.47;;;-7.22;63.54
46111;BME280;31849;55.992;37.252;2022-12-04T01:23:45;102018.34;;;-7.27;63.10
46111;BME280;31849;55.992;37.252;2022-12-04T01:28:49;102020.53;;;-7.30;62.87
46111;BME280;31849;55.992;37.252;2022-12-04T01:33:53;102019.88;;;-7.20;62.83
46111;BME280;31849;55.992;37.252;2022-12-04T01:38:57;102020.41;;;-7.38;63.92
46111;BME280;31849;55.992;37.252;2022-12-04T01:44:09;102025.97;;;-7.34;63.74
46111;BME280;31849;55.992;37.252;2022-12-04T01:49:15;102027.28;;;-7.37;63.11
46111;BME280;31849;55.992;37.252;2022-12-04T01:54:25;102027.78;;;-7.33;63.15
46111;BME280;31849;55.992;37.252;2022-12-04T01:59:34;102024.28;;;-7.49;64.00
46111;BME280;31849;55.992;37.252;2022-12-04T02:04:39;102034.41;;;-7.49;63.47
46111;BME280;31849;55.992;37.252;2022-12-04T02:09:45;102029.63;;;-7.69;63.48
46111;BME280;31849;55.992;37.252;2022-12-04T02:15:02;102025.97;;;-7.87;64.23
46111;BME280;31849;55.992;37.252;2022-12-04T02:20:20;102023.84;;;-7.99;63.94
46111;BME280;31849;55.992;37.252;2022-12-04T02:25:34;102022.25;;;-8.05;64.39
46111;BME280;31849;55.992;37.252;2022-12-04T02:30:43;102027.56;;;-8.25;64.04
46111;BME280;31849;55.992;37.252;2022-12-04T02:35:51;102051.56;;;-8.29;63.58
46111;BME280;31849;55.992;37.252;2022-12-04T02:40:58;102034.59;;;-8.23;63.25
46111;BME280;31849;55.992;37.252;2022-12-04T02:46:08;102045.13;;;-8.34;63.79
46111;BME280;31849;55.992;37.252;2022-12-04T02:51:13;102059.34;;;-8.42;63.83
46111;BME280;31849;55.992;37.252;2022-12-04T02:56:21;102051.78;;;-8.42;63.91
46111;BME280;31849;55.992;37.252;2022-12-04T03:01:31;102040.13;;;-8.49;63.75
46111;BME280;31849;55.992;37.252;2022-12-04T03:06:39;102053.41;;;-8.42;63.30
46111;BME280;31849;55.992;37.252;2022-12-04T03:11:48;102050.41;;;-8.47;63.25
46111;BME280;31849;55.992;37.252;2022-12-04T03:16:57;102056.34;;;-8.46;63.19
46111;BME280;31849;55.992;37.252;2022-12-04T03:22:04;102043.19;;;-8.51;63.91
46111;BME280;31849;55.992;37.252;2022-12-04T03:27:11;102062.97;;;-8.40;63.29
46111;BME280;31849;55.992;37.252;2022-12-04T03:32:24;102064.13;;;-8.59;63.59
46111;BME280;31849;55.992;37.252;2022-12-04T03:37:34;102058.53;;;-8.57;62.85
46111;BME280;31849;55.992;37.252;2022-12-04T03:42:42;102041.97;;;-8.69;63.56
46111;BME280;31849;55.992;37.252;2022-12-04T03:47:54;102060.53;;;-8.69;63.92
46111;BME280;31849;55.992;37.252;2022-12-04T03:53:03;102069.72;;;-8.62;63.35
46111;BME280;31849;55.992;37.252;2022-12-04T03:58:12;102059.09;;;-8.95;63.41
46111;BME280;31849;55.992;37.252;2022-12-04T04:03:21;102073.16;;;-8.90;63.57
46111;BME280;31849;55.992;37.252;2022-12-04T04:08:30;102083.97;;;-9.06;63.99
46111;BME280;31849;55.992;37.252;2022-12-04T04:13:39;102077.16;;;-8.99;64.21
46111;BME280;31849;55.992;37.252;2022-12-04T04:19:04;102080.38;;;-9.08;64.29
46111;BME280;31849;55.992;37.252;2022-12-04T04:24:30;102093.31;;;-9.12;64.45
46111;BME280;31849;55.992;37.252;2022-12-04T04:29:36;102089.00;;;-9.27;64.24
46111;BME280;31849;55.992;37.252;2022-12-04T04:34:43;102098.00;;;-9.37;65.23
46111;BME280;31849;55.992;37.252;2022-12-04T04:39:54;102094.75;;;-9.28;63.62
46111;BME280;31849;55.992;37.252;2022-12-04T04:45:03;102094.75;;;-9.21;64.30
46111;BME280;31849;55.992;37.252;2022-12-04T04:50:10;102111.28;;;-9.38;63.83
46111;BME280;31849;55.992;37.252;2022-12-04T04:55:15;102098.34;;;-9.33;63.84
46111;BME280;31849;55.992;37.252;2022-12-04T05:00:21;102102.81;;;-9.52;64.08
46111;BME280;31849;55.992;37.252;2022-12-04T05:05:26;102100.13;;;-9.47;64.73
46111;BME280;31849;55.992;37.252;2022-12-04T05:10:29;102097.59;;;-9.54;64.48
46111;BME280;31849;55.992;37.252;2022-12-04T05:15:33;102102.28;;;-9.35;64.18
46111;BME280;31849;55.992;37.252;2022-12-04T05:20:38;102108.44;;;-9.33;63.55
46111;BME280;31849;55.992;37.252;2022-12-04T05:25:42;102097.44;;;-9.34;63.25
46111;BME280;31849;55.992;37.252;2022-12-04T05:30:53;102107.69;;;-9.32;63.84
46111;BME280;31849;55.992;37.252;2022-12-04T05:35:59;102111.69;;;-9.20;63.39
46111;BME280;31849;55.992;37.252;2022-12-04T05:41:04;102111.66;;;-9.34;63.41
46111;BME280;31849;55.992;37.252;2022-12-04T05:46:08;102114.53;;;-9.31;62.92
46111;BME280;31849;55.992;37.252;2022-12-04T05:51:13;102115.47;;;-9.16;62.34
46111;BME280;31849;55.992;37.252;2022-12-04T05:56:16;102115.66;;;-9.08;62.20
46111;BME280;31849;55.992;37.252;2022-12-04T06:01:22;102121.75;;;-9.34;63.48
46111;BME280;31849;55.992;37.252;2022-12-04T06:06:27;102121.06;;;-9.05;62.64
46111;BME280;31849;55.992;37.252;2022-12-04T06:11:32;102121.59;;;-9.00;61.75
46111;BME280;31849;55.992;37.252;2022-12-04T06:16:38;102072.09;;;-9.21;61.67
46111;BME280;31849;55.992;37.252;2022-12-04T06:21:46;102122.16;;;-8.74;61.45
46111;BME280;31849;55.992;37.252;2022-12-04T06:26:50;102126.47;;;-8.66;61.29
46111;BME280;31849;55.992;37.252;2022-12-04T06:32:17;102120.16;;;-8.62;60.34
46111;BME280;31849;55.992;37.252;2022-12-04T06:37:24;102125.75;;;-7.91;60.15
46111;BME280;31849;55.992;37.252;2022-12-04T06:42:28;102128.00;;;-6.09;55.02
46111;BME280;31849;55.992;37.252;2022-12-04T06:47:33;102116.16;;;-3.93;52.29
46111;BME280;31849;55.992;37.252;2022-12-04T06:52:38;102124.03;;;-3.29;50.02
46111;BME280;31849;55.992;37.252;2022-12-04T06:57:41;102117.66;;;-2.05;46.84
46111;BME280;31849;55.992;37.252;2022-12-04T07:02:44;102126.16;;;-1.77;47.35
46111;BME280;31849;55.992;37.252;2022-12-04T07:07:49;102121.81;;;-2.16;47.34
46111;BME280;31849;55.992;37.252;2022-12-04T07:12:52;102122.72;;;-3.78;47.00
46111;BME280;31849;55.992;37.252;2022-12-04T07:17:56;102137.41;;;-3.75;49.07
46111;BME280;31849;55.992;37.252;2022-12-04T07:23:00;102143.31;;;-4.94;50.36
46111;BME280;31849;55.992;37.252;2022-12-04T07:28:09;102149.13;;;-5.44;51.06
46111;BME280;31849;55.992;37.252;2022-12-04T07:33:13;102144.13;;;-6.08;52.64
46111;BME280;31849;55.992;37.252;2022-12-04T07:38:18;102145.81;;;-5.03;50.79
46111;BME280;31849;55.992;37.252;2022-12-04T07:43:21;102142.91;;;-3.36;46.82
46111;BME280;31849;55.992;37.252;2022-12-04T07:48:24;102152.00;;;-1.83;45.36
46111;BME280;31849;55.992;37.252;2022-12-04T07:53:35;102140.13;;;-0.56;43.54
46111;BME280;31849;55.992;37.252;2022-12-04T07:58:39;102148.19;;;-0.51;42.31
46111;BME280;31849;55.992;37.252;2022-12-04T08:03:45;102127.25;;;-0.37;42.63
46111;BME280;31849;55.992;37.252;2022-12-04T08:08:51;102137.78;;;-0.74;42.52
46111;BME280;31849;55.992;37.252;2022-12-04T08:13:56;102143.59;;;-1.82;42.99
46111;BME280;31849;55.992;37.252;2022-12-04T08:19:00;102139.88;;;-0.49;41.60
46111;BME280;31849;55.992;37.252;2022-12-04T08:24:05;102124.50;;;0.44;39.88
46111;BME280;31849;55.992;37.252;2022-12-04T08:29:08;102136.94;;;-0.43;39.08
46111;BME280;31849;55.992;37.252;2022-12-04T08:34:13;102146.03;;;-2.11;42.87
46111;BME280;31849;55.992;37.252;2022-12-04T08:39:18;102149.22;;;-2.87;43.69
46111;BME280;31849;55.992;37.252;2022-12-04T08:44:21;102144.66;;;-2.99;43.90
46111;BME280;31849;55.992;37.252;2022-12-04T08:49:24;102147.38;;;-3.33;44.42
46111;BME280;31849;55.992;37.252;2022-12-04T08:54:29;102136.03;;;-3.72;44.82
46111;BME280;31849;55.992;37.252;2022-12-04T08:59:37;102133.66;;;-4.47;45.70
46111;BME280;31849;55.992;37.252;2022-12-04T09:04:40;102142.66;;;-4.75;46.77
46111;BME280;31849;55.992;37.252;2022-12-04T09:09:45;102143.84;;;-4.81;46.73
46111;BME280;31849;55.992;37.252;2022-12-04T09:14:49;102150.50;;;-4.90;47.13
46111;BME280;31849;55.992;37.252;2022-12-04T09:19:52;102137.63;;;-5.00;47.59
46111;BME280;31849;55.992;37.252;2022-12-04T09:25:04;102131.31;;;-5.04;47.12
46111;BME280;31849;55.992;37.252;2022-12-04T09:30:08;102144.13;;;-5.36;47.77
46111;BME280;31849;55.992;37.252;2022-12-04T09:35:14;102144.88;;;-5.69;48.68
46111;BME280;31849;55.992;37.252;2022-12-04T09:40:24;102146.19;;;-5.72;48.41
46111;BME280;31849;55.992;37.252;2022-12-04T09:45:41;102143.84;;;-5.87;48.05
46111;BME280;31849;55.992;37.252;2022-12-04T09:50:49;102142.22;;;-5.86;48.24
46111;BME280;31849;55.992;37.252;2022-12-04T09:55:58;102143.84;;;-5.87;47.71
46111;BME280;31849;55.992;37.252;2022-12-04T10:01:04;102146.59;;;-6.01;48.79
46111;BME280;31849;55.992;37.252;2022-12-04T10:06:11;102144.38;;;-5.98;48.72
46111;BME280;31849;55.992;37.252;2022-12-04T10:11:21;102141.13;;;-5.72;48.25
46111;BME280;31849;55.992;37.252;2022-12-04T10:16:42;102120.69;;;-5.90;48.05
46111;BME280;31849;55.992;37.252;2022-12-04T10:21:58;102122.34;;;-5.74;47.88
46111;BME280;31849;55.992;37.252;2022-12-04T10:27:11;102117.53;;;-5.96;48.50
46111;BME280;31849;55.992;37.252;2022-12-04T10:32:20;102119.91;;;-5.81;48.47
46111;BME280;31849;55.992;37.252;2022-12-04T10:37:24;102115.06;;;-5.87;47.87
46111;BME280;31849;55.992;37.252;2022-12-04T10:42:36;102114.16;;;-5.72;48.01
46111;BME280;31849;55.992;37.252;2022-12-04T10:47:44;102075.00;;;-5.83;47.39
46111;BME280;31849;55.992;37.252;2022-12-04T10:52:48;102100.88;;;-5.53;47.87
46111;BME280;31849;55.992;37.252;2022-12-04T10:57:53;102108.31;;;-5.55;48.00
46111;BME280;31849;55.992;37.252;2022-12-04T11:02:59;102119.66;;;-5.92;47.63
46111;BME280;31849;55.992;37.252;2022-12-04T11:08:04;102106.22;;;-5.75;47.72
46111;BME280;31849;55.992;37.252;2022-12-04T11:13:15;102101.59;;;-5.95;47.90
46111;BME280;31849;55.992;37.252;2022-12-04T11:18:21;102111.09;;;-6.17;47.27
46111;BME280;31849;55.992;37.252;2022-12-04T11:23:25;102093.53;;;-5.99;47.70
46111;BME280;31849;55.992;37.252;2022-12-04T11:28:30;102104.28;;;-5.93;48.11
46111;BME280;31849;55.992;37.252;2022-12-04T11:33:45;102102.91;;;-5.98;47.68
46111;BME280;31849;55.992;37.252;2022-12-04T11:38:51;102098.03;;;-6.13;48.50
46111;BME280;31849;55.992;37.252;2022-12-04T11:43:58;102082.59;;;-6.23;48.39
46111;BME280;31849;55.992;37.252;2022-12-04T11:49:02;102096.63;;;-6.18;48.72
46111;BME280;31849;55.992;37.252;2022-12-04T11:54:11;102092.72;;;-6.39;48.38
46111;BME280;31849;55.992;37.252;2022-12-04T11:59:38;102080.22;;;-6.38;48.60
46111;BME280;31849;55.992;37.252;2022-12-04T12:05:02;102087.47;;;-6.41;48.86
46111;BME280;31849;55.992;37.252;2022-12-04T12:10:14;102086.06;;;-6.62;48.88
46111;BME280;31849;55.992;37.252;2022-12-04T12:15:27;102090.47;;;-6.68;49.09
46111;BME280;31849;55.992;37.252;2022-12-04T12:20:36;102082.66;;;-6.85;49.24
46111;BME280;31849;55.992;37.252;2022-12-04T12:25:50;102086.97;;;-6.84;49.61
46111;BME280;31849;55.992;37.252;2022-12-04T12:31:08;102076.34;;;-7.05;49.94
46111;BME280;31849;55.992;37.252;2022-12-04T12:36:15;102084.81;;;-7.04;50.00
46111;BME280;31849;55.992;37.252;2022-12-04T12:41:21;102096.56;;;-7.05;50.36
46111;BME280;31849;55.992;37.252;2022-12-04T12:46:29;102083.56;;;-7.31;50.21
46111;BME280;31849;55.992;37.252;2022-12-04T12:51:39;102102.34;;;-7.36;50.24
46111;BME280;31849;55.992;37.252;2022-12-04T12:56:48;102101.44;;;-7.30;50.50
46111;BME280;31849;55.992;37.252;2022-12-04T13:01:56;102100.44;;;-7.46;51.24
46111;BME280;31849;55.992;37.252;2022-12-04T13:07:13;102102.97;;;-7.46;50.94
46111;BME280;31849;55.992;37.252;2022-12-04T13:12:22;102107.81;;;-7.40;50.72
46111;BME280;31849;55.992;37.252;2022-12-04T13:17:29;102113.13;;;-7.53;51.14
46111;BME280;31849;55.992;37.252;2022-12-04T13:22:42;102110.81;;;-7.66;51.12
46111;BME280;31849;55.992;37.252;2022-12-04T13:28:00;102111.88;;;-7.57;51.36
46111;BME280;31849;55.992;37.252;2022-12-04T13:33:34;102115.50;;;-7.62;51.44
46111;BME280;31849;55.992;37.252;2022-12-04T13:38:52;102106.34;;;-7.69;51.81
46111;BME280;31849;55.992;37.252;2022-12-04T13:44:01;102102.69;;;-7.64;51.40
46111;BME280;31849;55.992;37.252;2022-12-04T13:49:23;102108.91;;;-7.76;52.54
46111;BME280;31849;55.992;37.252;2022-12-04T13:54:29;102109.78;;;-7.75;52.29
46111;BME280;31849;55.992;37.252;2022-12-04T13:59:35;102093.06;;;-7.82;52.02
46111;BME280;31849;55.992;37.252;2022-12-04T14:04:45;102098.47;;;-7.79;51.93
46111;BME280;31849;55.992;37.252;2022-12-04T14:09:56;102099.34;;;-7.79;51.96
46111;BME280;31849;55.992;37.252;2022-12-04T14:15:01;102099.19;;;-7.87;52.68
46111;BME280;31849;55.992;37.252;2022-12-04T14:20:21;102096.31;;;-7.83;52.35
46111;BME280;31849;55.992;37.252;2022-12-04T14:25:34;102094.66;;;-7.83;53.01
46111;BME280;31849;55.992;37.252;2022-12-04T14:30:38;102089.88;;;-7.96;52.90
46111;BME280;31849;55.992;37.252;2022-12-04T14:35:47;102093.25;;;-7.88;53.24
46111;BME280;31849;55.992;37.252;2022-12-04T14:40:54;102085.34;;;-7.91;52.89
46111;BME280;31849;55.992;37.252;2022-12-04T14:46:03;102088.94;;;-7.89;53.69
46111;BME280;31849;55.992;37.252;2022-12-04T14:51:15;102093.97;;;-7.89;53.56
46111;BME280;31849;55.992;37.252;2022-12-04T14:56:25;102097.25;;;-7.97;54.21
46111;BME280;31849;55.992;37.252;2022-12-04T15:01:36;102094.03;;;-8.03;53.63
46111;BME280;31849;55.992;37.252;2022-12-04T15:06:41;102097.38;;;-7.88;53.12
46111;BME280;31849;55.992;37.252;2022-12-04T15:11:52;102077.63;;;-8.00;53.78
46111;BME280;31849;55.992;37.252;2022-12-04T15:17:14;102080.34;;;-8.13;54.41
46111;BME280;31849;55.992;37.252;2022-12-04T15:22:22;102085.56;;;-8.04;53.24
46111;BME280;31849;55.992;37.252;2022-12-04T15:27:26;102089.19;;;-8.09;54.21
46111;BME280;31849;55.992;37.252;2022-12-04T15:32:33;102086.28;;;-8.12;54.09
46111;BME280;31849;55.992;37.252;2022-12-04T15:37:39;102084.53;;;-8.20;54.16
46111;BME280;31849;55.992;37.252;2022-12-04T15:42:43;102079.50;;;-8.20;54.00
46111;BME280;31849;55.992;37.252;2022-12-04T15:47:50;102081.63;;;-8.09;53.95
46111;BME280;31849;55.992;37.252;2022-12-04T15:53:00;102074.06;;;-8.16;54.22
46111;BME280;31849;55.992;37.252;2022-12-04T15:58:07;102075.69;;;-8.17;54.80
46111;BME280;31849;55.992;37.252;2022-12-04T16:03:24;102083.09;;;-8.25;55.25
46111;BME280;31849;55.992;37.252;2022-12-04T16:08:33;102088.31;;;-8.24;55.30
46111;BME280;31849;55.992;37.252;2022-12-04T16:13:37;102089.59;;;-8.20;54.67
46111;BME280;31849;55.992;37.252;2022-12-04T16:18:42;102087.28;;;-8.40;56.39
46111;BME280;31849;55.992;37.252;2022-12-04T16:23:47;102095.59;;;-8.34;55.11
46111;BME280;31849;55.992;37.252;2022-12-04T16:28:51;102077.34;;;-8.39;55.70
46111;BME280;31849;55.992;37.252;2022-12-04T16:33:54;102079.53;;;-8.42;55.77
46111;BME280;31849;55.992;37.252;2022-12-04T16:38:59;102083.41;;;-8.60;56.36
46111;BME280;31849;55.992;37.252;2022-12-04T16:44:10;102072.41;;;-8.46;55.51
46111;BME280;31849;55.992;37.252;2022-12-04T16:49:14;102081.06;;;-8.66;56.59
46111;BME280;31849;55.992;37.252;2022-12-04T16:54:21;102076.94;;;-8.72;56.39
46111;BME280;31849;55.992;37.252;2022-12-04T16:59:25;102072.59;;;-8.73;56.71
46111;BME280;31849;55.992;37.252;2022-12-04T17:04:28;102083.22;;;-8.76;56.19
46111;BME280;31849;55.992;37.252;2022-12-04T17:09:33;102081.63;;;-8.68;56.04
46111;BME280;31849;55.992;37.252;2022-12-04T17:14:37;102071.53;;;-8.68;56.25
46111;BME280;31849;55.992;37.252;2022-12-04T17:19:41;102054.81;;;-8.96;57.03
46111;BME280;31849;55.992;37.252;2022-12-04T17:24:46;102060.91;;;-8.87;56.95
46111;BME280;31849;55.992;37.252;2022-12-04T17:29:57;102062.91;;;-8.85;56.51
46111;BME280;31849;55.992;37.252;2022-12-04T17:35:03;102058.22;;;-8.81;56.28
46111;BME280;31849;55.992;37.252;2022-12-04T17:40:10;102054.81;;;-8.96;57.09
46111;BME280;31849;55.992;37.252;2022-12-04T17:45:15;102065.59;;;-8.97;57.02
46111;BME280;31849;55.992;37.252;2022-12-04T17:50:19;102063.81;;;-8.91;56.00
46111;BME280;31849;55.992;37.252;2022-12-04T17:55:24;102057.16;;;-8.98;56.25
46111;BME280;31849;55.992;37.252;2022-12-04T18:00:27;102040.56;;;-9.10;56.52
46111;BME280;31849;55.992;37.252;2022-12-04T18:05:31;102064.34;;;-9.23;57.24
46111;BME280;31849;55.992;37.252;2022-12-04T18:10:36;102057.84;;;-9.28;57.09
46111;BME280;31849;55.992;37.252;2022-12-04T18:15:39;102052.28;;;-9.25;56.78
46111;BME280;31849;55.992;37.252;2022-12-04T18:20:43;102054.25;;;-9.30;56.72
46111;BME280;31849;55.992;37.252;2022-12-04T18:25:54;102051.91;;;-9.35;56.82
46111;BME280;31849;55.992;37.252;2022-12-04T18:31:00;102057.31;;;-9.32;56.02
46111;BME280;31849;55.992;37.252;2022-12-04T18:36:05;102054.78;;;-9.40;56.95
46111;BME280;31849;55.992;37.252;2022-12-04T18:41:13;102046.13;;;-9.42;56.16
46111;BME280;31849;55.992;37.252;2022-12-04T18:46:17;102045.78;;;-9.45;56.95
46111;BME280;31849;55.992;37.252;2022-12-04T18:51:22;102018.59;;;-9.69;57.29
46111;BME280;31849;55.992;37.252;2022-12-04T18:56:27;102033.00;;;-9.53;56.63
46111;BME280;31849;55.992;37.252;2022-12-04T19:01:31;102042.16;;;-9.61;56.40
46111;BME280;31849;55.992;37.252;2022-12-04T19:06:39;102036.41;;;-9.67;57.44
46111;BME280;31849;55.992;37.252;2022-12-04T19:11:45;102019.28;;;-9.70;57.14
46111;BME280;31849;55.992;37.252;2022-12-04T19:16:48;102030.47;;;-9.61;56.57
46111;BME280;31849;55.992;37.252;2022-12-04T19:21:53;102035.66;;;-9.66;56.92
46111;BME280;31849;55.992;37.252;2022-12-04T19:26:58;102027.16;;;-9.81;57.99
46111;BME280;31849;55.992;37.252;2022-12-04T19:32:02;102024.66;;;-9.81;57.49
46111;BME280;31849;55.992;37.252;2022-12-04T19:37:06;102029.69;;;-9.81;56.96
46111;BME280;31849;55.992;37.252;2022-12-04T19:42:11;102032.78;;;-9.84;57.28
46111;BME280;31849;55.992;37.252;2022-12-04T19:47:14;102025.91;;;-9.85;57.73
46111;BME280;31849;55.992;37.252;2022-12-04T19:52:19;102025.38;;;-9.90;57.09
46111;BME280;31849;55.992;37.252;2022-12-04T19:57:24;102024.84;;;-9.87;57.69
46111;BME280;31849;55.992;37.252;2022-12-04T20:02:27;102014.91;;;-10.00;57.99
46111;BME280;31849;55.992;37.252;2022-12-04T20:07:31;102017.44;;;-10.00;57.65
46111;BME280;31849;55.992;37.252;2022-12-04T20:12:36;102020.06;;;-10.13;58.12
46111;BME280;31849;55.992;37.252;2022-12-04T20:17:39;102027.44;;;-10.14;58.45
46111;BME280;31849;55.992;37.252;2022-12-04T20:22:43;102037.31;;;-10.16;58.02
46111;BME280;31849;55.992;37.252;2022-12-04T20:27:50;102011.41;;;-10.22;57.69
46111;BME280;31849;55.992;37.252;2022-12-04T20:32:54;102029.56;;;-10.25;58.40
46111;BME280;31849;55.992;37.252;2022-12-04T20:37:57;102017.53;;;-10.27;58.02
46111;BME280;31849;55.992;37.252;2022-12-04T20:43:02;102017.69;;;-10.33;58.72
46111;BME280;31849;55.992;37.252;2022-12-04T20:48:06;102024.66;;;-10.30;58.58
46111;BME280;31849;55.992;37.252;2022-12-04T20:53:09;102012.78;;;-10.46;58.60
46111;BME280;31849;55.992;37.252;2022-12-04T20:58:14;102020.56;;;-10.37;58.27
46111;BME280;31849;55.992;37.252;2022-12-04T21:03:17;102021.22;;;-10.52;59.25
46111;BME280;31849;55.992;37.252;2022-12-04T21:08:21;102019.41;;;-10.53;59.45
46111;BME280;31849;55.992;37.252;2022-12-04T21:13:39;102018.19;;;-10.43;58.76
46111;BME280;31849;55.992;37.252;2022-12-04T21:19:00;102013.09;;;-10.57;59.78
46111;BME280;31849;55.992;37.252;2022-12-04T21:24:05;102004.50;;;-10.52;59.42
46111;BME280;31849;55.992;37.252;2022-12-04T21:29:10;101996.72;;;-10.61;59.13
46111;BME280;31849;55.992;37.252;2022-12-04T21:34:15;101992.34;;;-10.76;60.11
46111;BME280;31849;55.992;37.252;2022-12-04T21:39:18;101984.13;;;-10.68;59.85
46111;BME280;31849;55.992;37.252;2022-12-04T21:44:43;101981.59;;;-10.68;59.71
46111;BME280;31849;55.992;37.252;2022-12-04T21:49:47;101986.13;;;-10.65;58.93
46111;BME280;31849;55.992;37.252;2022-12-04T21:54:51;101978.00;;;-10.70;59.92
46111;BME280;31849;55.992;37.252;2022-12-04T21:59:56;101976.03;;;-10.72;60.19
46111;BME280;31849;55.992;37.252;2022-12-04T22:05:00;101966.84;;;-10.72;59.29
46111;BME280;31849;55.992;37.252;2022-12-04T22:10:05;101962.00;;;-10.77;59.97
46111;BME280;31849;55.992;37.252;2022-12-04T22:15:13;101953.53;;;-10.78;59.84
46111;BME280;31849;55.992;37.252;2022-12-04T22:20:16;101951.53;;;-10.81;60.76
46111;BME280;31849;55.992;37.252;2022-12-04T22:25:20;101955.72;;;-10.74;59.22
46111;BME280;31849;55.992;37.252;2022-12-04T22:30:25;101952.66;;;-10.79;60.03
46111;BME280;31849;55.992;37.252;2022-12-04T22:35:30;101940.47;;;-10.75;60.45
46111;BME280;31849;55.992;37.252;2022-12-04T22:40:36;101935.63;;;-10.74;60.19
46111;BME280;31849;55.992;37.252;2022-12-04T22:45:41;101924.41;;;-10.90;59.99
46111;BME280;31849;55.992;37.252;2022-12-04T22:50:44;101931.66;;;-10.79;60.64
46111;BME280;31849;55.992;37.252;2022-12-04T22:55:47;101921.59;;;-10.79;60.12
46111;BME280;31849;55.992;37.252;2022-12-04T23:00:52;101923.59;;;-10.69;59.74
46111;BME280;31849;55.992;37.252;2022-12-04T23:11:13;101915.03;;;-10.64;59.33
46111;BME280;31849;55.992;37.252;2022-12-04T23:16:17;101917.91;;;-10.61;60.11
46111;BME280;31849;55.992;37.252;2022-12-04T23:21:21;101914.63;;;-10.67;59.82
46111;BME280;31849;55.992;37.252;2022-12-04T23:26:29;101920.69;;;-10.80;60.62
46111;BME280;31849;55.992;37.252;2022-12-04T23:31:33;101917.25;;;-10.87;60.99
46111;BME280;31849;55.992;37.252;2022-12-04T23:36:36;101891.38;;;-10.93;60.58
46111;BME280;31849;55.992;37.252;2022-12-04T23:41:41;101912.81;;;-10.75;60.51
46111;BME280;31849;55.992;37.252;2022-12-04T23:46:44;101911.72;;;-10.70;60.45
46111;BME280;31849;55.992;37.252;2022-12-04T23:51:48;101918.66;;;-10.48;59.70
46111;BME280;31849;55.992;37.252;2022-12-04T23:56:53;101914.31;;;-10.56;59.88
